Time;durP1;ratioP1;P1;durP2;ratioP2;P2;SDS_P1;SDS_P2;PMS_P1;PMS_P2;Temp;Humidity;BMP_temperature;BMP_pressure;BME280_temperature;BME280_humidity;BME280_pressure;Samples;Min_cycle;Max_cycle;Signal;HPM_P1;HPM_P2
2022/03/11 00:00:53;;;;;;;5.84;3.96;;;;;;;-4.00;85.73;101395.28;459670;114;922899;-68
2022/03/11 00:01:56;;;;;;;5.01;4.40;;;;;;;-3.99;85.71;101396.99;461463;114;922699;-68
2022/03/11 00:03:02;;;;;;;4.69;3.57;;;;;;;-3.98;85.67;101414.69;456221;114;922616;-68
2022/03/11 00:04:05;;;;;;;4.52;4.14;;;;;;;-3.99;85.60;101399.66;460855;114;922953;-69
2022/03/11 00:05:09;;;;;;;4.70;3.79;;;;;;;-4.01;85.61;101398.89;459364;114;923362;-67
2022/03/11 00:06:13;;;;;;;5.73;4.32;;;;;;;-4.04;85.66;101405.30;458963;114;930472;-66
2022/03/11 00:07:17;;;;;;;5.13;4.19;;;;;;;-4.04;85.56;101407.10;459369;114;922705;-67
2022/03/11 00:08:20;;;;;;;4.95;4.41;;;;;;;-4.06;85.66;101404.53;459186;114;922547;-68
2022/03/11 00:09:23;;;;;;;5.02;4.47;;;;;;;-4.07;85.48;101405.48;461153;114;922494;-69
2022/03/11 00:10:27;;;;;;;6.07;5.02;;;;;;;-4.09;85.44;101396.76;458898;114;922694;-68
2022/03/11 00:11:30;;;;;;;7.60;5.18;;;;;;;-4.11;85.34;101403.98;458824;114;922658;-68
2022/03/11 00:12:38;;;;;;;6.98;4.87;;;;;;;-4.15;85.31;101399.82;458712;114;922588;-70
2022/03/11 00:13:42;;;;;;;6.34;4.96;;;;;;;-4.17;85.28;101406.19;458528;114;922900;-68
2022/03/11 00:14:45;;;;;;;5.37;4.87;;;;;;;-4.20;85.29;101404.59;461006;114;922585;-69
2022/03/11 00:15:49;;;;;;;5.75;4.74;;;;;;;-4.22;85.32;101401.17;460943;114;922543;-68
2022/03/11 00:16:52;;;;;;;6.97;4.62;;;;;;;-4.22;85.32;101407.35;462503;114;930488;-70
2022/03/11 00:17:57;;;;;;;6.49;4.58;;;;;;;-4.22;85.27;101399.36;462076;114;930442;-67
2022/03/11 00:19:00;;;;;;;4.62;4.17;;;;;;;-4.23;85.22;101394.98;461156;114;930992;-68
2022/03/11 00:20:08;;;;;;;4.05;3.50;;;;;;;-4.24;85.20;101392.41;459968;114;922799;-67
2022/03/11 00:21:12;;;;;;;4.84;4.41;;;;;;;-4.26;85.11;101397.01;458692;114;922403;-68
2022/03/11 00:22:16;;;;;;;5.93;4.15;;;;;;;-4.29;84.99;101400.71;461872;114;928883;-69
2022/03/11 00:23:19;;;;;;;9.42;4.30;;;;;;;-4.31;85.03;101399.12;460747;114;922994;-68
2022/03/11 00:24:23;;;;;;;5.29;4.53;;;;;;;-4.34;84.96;101393.97;458757;114;922597;-69
2022/03/11 00:25:26;;;;;;;5.04;4.53;;;;;;;-4.35;84.90;101389.59;457154;114;922512;-69
2022/03/11 00:26:31;;;;;;;4.41;3.87;;;;;;;-4.38;84.85;101393.33;458356;114;922864;-68
2022/03/11 00:27:34;;;;;;;5.15;4.06;;;;;;;-4.39;84.87;101396.09;458685;114;930500;-69
2022/03/11 00:28:38;;;;;;;4.81;4.41;;;;;;;-4.40;84.90;101391.70;462678;114;930614;-69
2022/03/11 00:29:41;;;;;;;4.22;3.82;;;;;;;-4.41;84.80;101396.17;460943;114;930605;-69
2022/03/11 00:30:45;;;;;;;4.69;4.09;;;;;;;-4.43;84.81;101403.42;459256;114;922619;-69
2022/03/11 00:31:49;;;;;;;5.05;4.58;;;;;;;-4.45;84.71;101396.48;458802;114;922582;-69
2022/03/11 00:32:52;;;;;;;4.92;4.11;;;;;;;-4.47;84.76;101393.94;459870;114;922611;-68
2022/03/11 00:33:55;;;;;;;4.78;4.34;;;;;;;-4.47;84.75;101398.41;459930;114;930547;-68
2022/03/11 00:34:59;;;;;;;8.14;4.10;;;;;;;-4.49;84.71;101393.17;460549;114;922554;-71
2022/03/11 00:36:03;;;;;;;5.28;4.62;;;;;;;-4.50;84.70;101394.12;459859;114;922508;-69
2022/03/11 00:37:06;;;;;;;5.61;5.11;;;;;;;-4.51;84.67;101402.20;462621;114;930525;-70
2022/03/11 00:38:09;;;;;;;5.00;4.45;;;;;;;-4.51;84.66;101396.87;463556;114;922594;-68
2022/03/11 00:39:13;;;;;;;5.78;4.77;;;;;;;-4.52;84.68;101397.84;459792;114;922571;-70
2022/03/11 00:40:17;;;;;;;4.68;3.89;;;;;;;-4.53;84.68;101399.66;461906;114;922475;-68
2022/03/11 00:41:20;;;;;;;4.71;4.12;;;;;;;-4.52;84.66;101392.53;458545;114;922975;-68
2022/03/11 00:42:24;;;;;;;5.18;4.21;;;;;;;-4.53;84.64;101404.12;458609;114;922590;-68
2022/03/11 00:43:27;;;;;;;4.85;4.33;;;;;;;-4.53;84.68;101404.98;460776;114;922956;-68
2022/03/11 00:44:31;;;;;;;5.15;4.60;;;;;;;-4.53;84.65;101401.45;461002;114;930483;-68
2022/03/11 00:45:35;;;;;;;4.91;4.36;;;;;;;-4.52;84.72;101403.17;461623;114;930557;-69
2022/03/11 00:46:38;;;;;;;5.11;4.48;;;;;;;-4.50;84.71;101401.25;461894;114;922609;-68
2022/03/11 00:47:43;;;;;;;5.15;4.61;;;;;;;-4.51;84.72;101400.39;461139;114;922657;-67
2022/03/11 00:48:46;;;;;;;5.07;4.57;;;;;;;-4.49;84.87;101408.28;459500;114;922659;-67
2022/03/11 00:49:49;;;;;;;5.57;3.87;;;;;;;-4.48;84.81;101399.35;462906;114;922567;-68
2022/03/11 00:50:53;;;;;;;6.28;4.42;;;;;;;-4.45;84.84;101407.13;460886;114;922578;-67
2022/03/11 00:51:56;;;;;;;5.38;4.75;;;;;;;-4.45;84.84;101407.98;459805;114;922627;-70
2022/03/11 00:53:02;;;;;;;5.25;4.41;;;;;;;-4.44;84.81;101406.17;457171;114;922514;-68
2022/03/11 00:54:05;;;;;;;6.25;4.33;;;;;;;-4.43;84.84;101405.23;459634;114;930627;-69
2022/03/11 00:55:09;;;;;;;5.10;4.55;;;;;;;-4.43;84.85;101403.42;460321;114;922662;-69
2022/03/11 00:56:13;;;;;;;6.15;5.17;;;;;;;-4.41;84.87;101398.02;460830;114;922547;-68
2022/03/11 00:57:16;;;;;;;5.04;4.13;;;;;;;-4.39;84.90;101404.07;462701;114;922581;-70
2022/03/11 00:58:20;;;;;;;6.22;5.41;;;;;;;-4.37;84.97;101404.84;462823;114;922554;-68
2022/03/11 00:59:23;;;;;;;6.54;4.92;;;;;;;-4.35;85.02;101405.57;463672;114;930537;-67
2022/03/11 01:00:27;;;;;;;6.64;5.39;;;;;;;-4.34;84.99;101399.30;460383;114;922753;-69
2022/03/11 01:01:30;;;;;;;5.94;4.94;;;;;;;-4.33;84.99;101406.34;460741;114;930575;-67
2022/03/11 01:02:36;;;;;;;6.51;5.90;;;;;;;-4.33;85.03;101406.34;460513;114;922569;-69
2022/03/11 01:03:47;;;;;;;5.07;4.57;;;;;;;-4.23;84.97;101410.96;485036;107;922596;-68
2022/03/11 01:04:50;;;;;;;7.71;5.37;;;;;;;-4.34;84.91;101405.48;475403;111;922999;-69
2022/03/11 01:05:54;;;;;;;5.34;4.85;;;;;;;-4.35;84.91;101402.91;473471;110;922637;-69
2022/03/11 01:06:57;;;;;;;6.06;5.28;;;;;;;-4.36;84.91;101411.88;474957;110;922571;-69
2022/03/11 01:08:00;;;;;;;6.19;5.56;;;;;;;-4.36;84.97;101410.07;476031;110;922710;-67
2022/03/11 01:09:04;;;;;;;6.33;5.73;;;;;;;-4.35;84.94;101416.22;474644;110;922418;-70
2022/03/11 01:10:09;;;;;;;6.75;6.05;;;;;;;-4.36;84.95;101412.73;474726;110;922664;-67
2022/03/11 01:11:13;;;;;;;5.61;5.02;;;;;;;-4.37;84.94;101411.02;469932;110;930406;-68
2022/03/11 01:12:16;;;;;;;6.28;5.54;;;;;;;-4.36;84.98;101414.54;474166;110;922587;-68
2022/03/11 01:13:19;;;;;;;6.44;5.81;;;;;;;-4.38;84.93;101417.29;472491;110;922538;-70
2022/03/11 01:14:24;;;;;;;5.52;4.52;;;;;;;-4.35;85.03;101418.88;473767;110;922592;-69
2022/03/11 01:15:27;;;;;;;5.80;5.26;;;;;;;-4.35;85.04;101416.22;473764;110;922621;-68
2022/03/11 01:16:31;;;;;;;6.85;4.81;;;;;;;-4.35;85.00;101419.73;476050;110;922665;-69
2022/03/11 01:17:35;;;;;;;5.42;4.74;;;;;;;-4.34;85.05;101418.80;473385;110;922562;-68
2022/03/11 01:18:38;;;;;;;5.47;4.98;;;;;;;-4.35;85.00;101424.20;473256;110;930439;-66
2022/03/11 01:19:42;;;;;;;7.05;5.31;;;;;;;-4.35;85.03;101416.22;470807;110;930579;-68
2022/03/11 01:20:45;;;;;;;5.89;4.61;;;;;;;-4.36;85.02;101418.06;472096;110;922475;-66
2022/03/11 01:21:48;;;;;;;5.06;4.56;;;;;;;-4.36;84.91;101425.19;473546;110;922896;-68
2022/03/11 01:22:52;;;;;;;5.55;5.05;;;;;;;-4.39;84.87;101425.36;471715;110;923122;-69
2022/03/11 01:23:55;;;;;;;7.33;5.14;;;;;;;-4.41;84.86;101417.47;474532;110;930487;-69
2022/03/11 01:24:59;;;;;;;6.44;4.92;;;;;;;-4.43;84.77;101413.22;472171;110;930651;-69
2022/03/11 01:26:03;;;;;;;7.12;5.08;;;;;;;-4.44;84.69;101419.48;472827;110;922573;-66
2022/03/11 01:27:07;;;;;;;5.56;5.01;;;;;;;-4.47;84.68;101417.03;474545;110;930546;-66
2022/03/11 01:28:10;;;;;;;5.19;4.56;;;;;;;-4.49;84.63;101416.27;477704;110;930558;-67
2022/03/11 01:29:13;;;;;;;5.41;4.41;;;;;;;-4.51;84.51;101423.48;474094;110;922565;-65
2022/03/11 01:30:19;;;;;;;5.41;4.83;;;;;;;-4.52;84.54;101421.80;470365;110;922520;-68
2022/03/11 01:31:22;;;;;;;5.40;4.89;;;;;;;-4.54;84.48;101421.03;472965;110;922679;-67
2022/03/11 01:32:25;;;;;;;5.66;5.11;;;;;;;-4.56;84.46;101422.92;473181;110;930540;-67
2022/03/11 01:33:29;;;;;;;5.18;4.68;;;;;;;-4.57;84.47;101426.53;471331;110;922994;-66
2022/03/11 01:34:32;;;;;;;6.08;4.77;;;;;;;-4.59;84.47;101418.67;472595;110;930506;-69
2022/03/11 01:35:35;;;;;;;6.14;4.95;;;;;;;-4.60;84.49;101418.76;473336;110;922605;-68
2022/03/11 01:36:39;;;;;;;5.89;4.88;;;;;;;-4.61;84.40;101428.55;473108;110;930445;-68
2022/03/11 01:37:43;;;;;;;5.54;5.03;;;;;;;-4.62;84.40;101424.17;473133;110;930523;-68
2022/03/11 01:38:46;;;;;;;5.44;4.85;;;;;;;-4.63;84.40;101425.11;472649;110;922601;-71
2022/03/11 01:39:50;;;;;;;8.21;4.48;;;;;;;-4.65;84.35;101425.23;473285;110;922595;-69
2022/03/11 01:40:53;;;;;;;5.82;5.25;;;;;;;-4.65;84.33;101416.39;479266;110;922799;-68
2022/03/11 01:41:56;;;;;;;6.00;5.28;;;;;;;-4.67;84.34;101416.48;475481;110;922725;-69
2022/03/11 01:43:00;;;;;;;5.41;4.80;;;;;;;-4.68;84.31;101422.75;472502;110;930610;-69
2022/03/11 01:44:08;;;;;;;5.07;4.59;;;;;;;-4.69;84.28;101422.88;473936;110;922504;-67
2022/03/11 01:45:11;;;;;;;5.39;4.85;;;;;;;-4.69;84.33;101422.88;474381;110;922839;-68
2022/03/11 01:46:16;;;;;;;5.71;5.18;;;;;;;-4.68;84.36;101429.87;470002;110;922637;-70
2022/03/11 01:47:20;;;;;;;5.48;4.59;;;;;;;-4.67;84.47;101427.13;476209;110;922649;-69
2022/03/11 01:48:23;;;;;;;5.00;4.50;;;;;;;-4.66;84.51;101422.66;477872;110;930484;-69
2022/03/11 01:49:26;;;;;;;6.76;4.96;;;;;;;-4.65;84.51;101419.05;471353;110;922979;-70
2022/03/11 01:50:30;;;;;;;5.45;4.79;;;;;;;-4.64;84.53;101418.11;473443;110;930502;-68
2022/03/11 01:51:36;;;;;;;5.02;4.55;;;;;;;-4.64;84.47;101415.45;471870;110;922643;-70
2022/03/11 01:52:39;;;;;;;5.67;4.75;;;;;;;-4.63;84.52;101422.45;473075;110;922679;-68
2022/03/11 01:53:44;;;;;;;6.89;5.69;;;;;;;-4.64;84.43;101421.62;473623;110;922557;-68
2022/03/11 01:54:49;;;;;;;5.04;4.55;;;;;;;-4.64;84.39;101426.09;473155;110;930483;-69
2022/03/11 01:55:52;;;;;;;5.21;4.69;;;;;;;-4.65;84.38;101425.23;474001;110;923025;-67
2022/03/11 01:56:56;;;;;;;6.36;4.99;;;;;;;-4.67;84.35;101421.80;471746;110;922543;-70
2022/03/11 01:57:59;;;;;;;5.36;4.86;;;;;;;-4.68;84.32;101425.41;472323;110;922472;-69
2022/03/11 01:59:04;;;;;;;6.36;4.81;;;;;;;-4.69;84.29;101429.05;474387;110;922568;-69
2022/03/11 02:00:08;;;;;;;6.37;4.93;;;;;;;-4.70;84.34;101427.34;471771;110;922680;-70
2022/03/11 02:01:19;;;;;;;5.77;5.14;;;;;;;-4.72;84.26;101428.37;479792;110;922554;-70
2022/03/11 02:02:23;;;;;;;6.72;5.11;;;;;;;-4.74;84.24;101425.80;473661;110;930518;-70
2022/03/11 02:03:26;;;;;;;5.89;5.23;;;;;;;-4.74;84.33;101425.80;472449;110;922846;-69
2022/03/11 02:04:29;;;;;;;5.08;4.56;;;;;;;-4.74;84.33;101431.12;473718;110;930565;-68
2022/03/11 02:05:33;;;;;;;4.76;4.26;;;;;;;-4.73;84.39;101431.97;472397;110;922414;-68
2022/03/11 02:06:37;;;;;;;5.11;4.60;;;;;;;-4.74;84.35;101431.12;476113;110;922580;-69
2022/03/11 02:07:40;;;;;;;5.49;4.99;;;;;;;-4.74;84.35;101435.61;468311;110;922845;-69
2022/03/11 02:08:44;;;;;;;4.56;4.01;;;;;;;-4.76;84.38;101433.04;476048;110;930628;-68
2022/03/11 02:09:47;;;;;;;6.79;4.65;;;;;;;-4.76;84.38;101438.36;471307;110;930526;-70
2022/03/11 02:10:53;;;;;;;5.71;4.82;;;;;;;-4.76;84.38;101438.36;472008;110;922968;-70
2022/03/11 02:11:56;;;;;;;5.89;4.49;;;;;;;-4.75;84.44;101431.23;476003;110;922968;-69
2022/03/11 02:13:03;;;;;;;5.64;4.54;;;;;;;-4.75;84.46;101437.41;474283;110;922604;-69
2022/03/11 02:14:14;;;;;;;4.81;4.27;;;;;;;-4.61;84.59;101441.84;476122;110;947156;-68
2022/03/11 02:15:17;;;;;;;4.30;3.94;;;;;;;-4.72;84.52;101446.98;466290;112;922469;-70
2022/03/11 02:16:24;;;;;;;5.38;4.33;;;;;;;-4.72;84.58;101442.52;457306;114;922689;-69
2022/03/11 02:17:28;;;;;;;4.77;4.11;;;;;;;-4.72;84.65;101445.19;461011;114;922423;-69
2022/03/11 02:18:31;;;;;;;5.04;4.47;;;;;;;-4.73;84.55;101443.47;460468;114;923165;-68
2022/03/11 02:19:35;;;;;;;4.87;4.22;;;;;;;-4.73;84.55;101443.47;460274;114;930646;-69
2022/03/11 02:20:39;;;;;;;5.36;4.58;;;;;;;-4.73;84.49;101443.47;459956;113;930485;-68
2022/03/11 02:21:45;;;;;;;5.33;4.83;;;;;;;-4.75;84.50;101448.05;456878;114;930734;-67
2022/03/11 02:22:52;;;;;;;6.68;5.26;;;;;;;-4.77;84.42;101452.61;456943;114;922597;-69
2022/03/11 02:23:59;;;;;;;4.79;4.05;;;;;;;-4.80;84.44;101449.29;457091;114;923241;-67
2022/03/11 02:25:05;;;;;;;6.18;4.57;;;;;;;-4.84;84.45;101451.27;456875;114;923184;-68
2022/03/11 02:26:10;;;;;;;4.55;3.88;;;;;;;-4.86;84.53;101455.84;453861;116;922667;-66
2022/03/11 02:27:13;;;;;;;5.62;5.01;;;;;;;-4.87;84.51;101456.79;459615;114;922559;-67
2022/03/11 02:28:16;;;;;;;5.73;4.99;;;;;;;-4.88;84.52;101454.22;458705;114;922561;-70
2022/03/11 02:29:19;;;;;;;5.20;4.67;;;;;;;-4.89;84.57;101449.84;460664;114;922887;-68
2022/03/11 02:30:24;;;;;;;5.77;5.15;;;;;;;-4.91;84.57;101449.96;456895;114;923046;-68
2022/03/11 02:31:29;;;;;;;8.31;4.93;;;;;;;-4.92;84.54;101460.69;456972;114;923027;-67
2022/03/11 02:32:32;;;;;;;4.77;4.36;;;;;;;-4.92;84.54;101455.36;457719;114;922582;-67
2022/03/11 02:33:36;;;;;;;5.26;4.71;;;;;;;-4.92;84.57;101452.70;458899;114;922714;-66
2022/03/11 02:34:40;;;;;;;5.17;4.56;;;;;;;-4.92;84.61;101458.88;452688;116;922621;-69
2022/03/11 02:35:43;;;;;;;6.10;4.81;;;;;;;-4.92;84.63;101460.69;456737;114;922611;-67
2022/03/11 02:36:47;;;;;;;5.30;4.80;;;;;;;-4.94;84.62;101452.79;456913;114;922544;-69
2022/03/11 02:37:52;;;;;;;5.28;4.78;;;;;;;-4.95;84.57;101459.05;458703;114;930523;-70
2022/03/11 02:38:56;;;;;;;4.75;4.32;;;;;;;-4.96;84.54;101457.34;457234;114;922560;-67
2022/03/11 02:39:59;;;;;;;5.45;4.95;;;;;;;-4.97;84.59;101455.66;457292;114;930744;-68
2022/03/11 02:41:03;;;;;;;7.22;5.18;;;;;;;-4.98;84.56;101459.25;456935;114;922609;-69
2022/03/11 02:42:06;;;;;;;5.28;4.78;;;;;;;-4.99;84.57;101460.20;456812;114;930629;-69
2022/03/11 02:43:10;;;;;;;5.03;4.54;;;;;;;-5.03;84.48;101461.34;457804;114;923515;-68
2022/03/11 02:44:13;;;;;;;5.33;4.83;;;;;;;-5.05;84.45;101452.59;457747;114;922928;-69
2022/03/11 02:45:16;;;;;;;6.62;4.82;;;;;;;-5.05;84.50;101463.23;457475;114;922528;-67
2022/03/11 02:46:21;;;;;;;5.66;5.05;;;;;;;-5.07;84.51;101452.68;458498;114;922607;-67
2022/03/11 02:47:25;;;;;;;5.39;4.43;;;;;;;-5.07;84.53;101450.02;456817;114;930524;-70
2022/03/11 02:48:28;;;;;;;5.86;4.69;;;;;;;-5.07;84.51;101457.14;457288;114;922555;-69
2022/03/11 02:49:31;;;;;;;5.78;5.21;;;;;;;-5.09;84.44;101456.40;458242;113;922779;-68
2022/03/11 02:50:35;;;;;;;4.42;3.98;;;;;;;-5.10;84.48;101454.68;458805;114;928915;-67
2022/03/11 02:51:38;;;;;;;6.45;4.98;;;;;;;-5.12;84.41;101451.25;459536;114;930583;-67
2022/03/11 02:52:41;;;;;;;5.08;4.57;;;;;;;-5.14;84.50;101448.71;457448;114;922709;-69
2022/03/11 02:53:45;;;;;;;5.08;4.58;;;;;;;-5.15;84.43;101446.99;457269;114;923208;-68
2022/03/11 02:54:49;;;;;;;6.49;5.32;;;;;;;-5.15;84.50;101440.81;459934;114;923002;-70
2022/03/11 02:55:52;;;;;;;6.85;5.14;;;;;;;-5.14;84.41;101442.53;457260;114;930826;-68
2022/03/11 02:56:56;;;;;;;5.50;5.00;;;;;;;-5.13;84.38;101449.56;457284;114;922606;-67
2022/03/11 02:57:59;;;;;;;5.05;4.24;;;;;;;-5.15;84.41;101456.77;459175;114;922641;-67
2022/03/11 02:59:04;;;;;;;5.66;4.80;;;;;;;-5.17;84.33;101461.31;459528;114;922644;-69
2022/03/11 03:00:10;;;;;;;5.17;4.24;;;;;;;-5.21;84.21;101451.82;457680;114;922700;-67
2022/03/11 03:01:13;;;;;;;6.34;5.06;;;;;;;-5.26;84.11;101459.22;457557;114;931183;-66
2022/03/11 03:02:17;;;;;;;4.79;4.14;;;;;;;-5.30;84.17;101461.22;458620;114;922681;-68
2022/03/11 03:03:20;;;;;;;5.19;4.20;;;;;;;-5.31;84.14;101459.50;457637;114;923059;-66
2022/03/11 03:04:23;;;;;;;4.74;4.24;;;;;;;-5.30;84.13;101465.68;459813;114;930595;-68
2022/03/11 03:05:27;;;;;;;4.83;4.38;;;;;;;-5.31;84.23;101451.53;459616;114;922578;-69
2022/03/11 03:06:30;;;;;;;5.12;4.62;;;;;;;-5.29;84.37;101459.42;460562;114;922516;-68
2022/03/11 03:07:34;;;;;;;5.74;4.31;;;;;;;-5.26;84.40;101457.42;459008;114;922647;-68
2022/03/11 03:08:37;;;;;;;4.54;4.11;;;;;;;-5.24;84.46;101462.66;457303;114;922591;-67
2022/03/11 03:09:41;;;;;;;4.69;4.24;;;;;;;-5.22;84.47;101455.42;457777;114;922935;-66
2022/03/11 03:10:45;;;;;;;4.89;4.42;;;;;;;-5.20;84.43;101465.03;459704;114;922556;-66
2022/03/11 03:11:48;;;;;;;4.62;4.19;;;;;;;-5.17;84.54;101458.66;460114;114;930551;-71
2022/03/11 03:12:51;;;;;;;5.23;4.51;;;;;;;-5.13;84.58;101468.17;457957;114;922933;-68
2022/03/11 03:13:55;;;;;;;4.71;4.31;;;;;;;-5.11;84.61;101468.92;461348;114;922659;-71
2022/03/11 03:14:58;;;;;;;5.43;4.93;;;;;;;-5.08;84.65;101469.61;456927;114;923037;-68
2022/03/11 03:16:04;;;;;;;4.95;4.46;;;;;;;-5.06;84.62;101458.86;456571;114;922777;-68
2022/03/11 03:17:07;;;;;;;4.41;3.97;;;;;;;-5.05;84.65;101463.23;460473;114;922986;-68
2022/03/11 03:18:11;;;;;;;6.53;4.14;;;;;;;-5.05;84.79;101471.20;458182;114;923484;-67
2022/03/11 03:19:14;;;;;;;5.70;5.09;;;;;;;-5.05;84.73;101471.20;459630;114;922641;-68
2022/03/11 03:20:19;;;;;;;5.59;4.83;;;;;;;-5.06;84.69;101466.83;457490;114;922975;-69
2022/03/11 03:21:26;;;;;;;5.76;4.89;;;;;;;-5.05;84.75;101460.57;457785;114;922720;-67
2022/03/11 03:22:29;;;;;;;6.04;4.77;;;;;;;-5.03;84.74;101477.30;459262;114;922587;-68
2022/03/11 03:23:32;;;;;;;6.37;5.11;;;;;;;-5.01;84.79;101469.20;456820;114;922625;-68
2022/03/11 03:24:36;;;;;;;5.16;4.57;;;;;;;-5.01;84.76;101471.86;456898;114;922929;-68
2022/03/11 03:25:39;;;;;;;4.78;4.22;;;;;;;-5.00;84.77;101469.12;456997;114;922509;-67
2022/03/11 03:26:42;;;;;;;5.15;4.38;;;;;;;-4.97;84.78;101474.27;458053;113;922608;-69
2022/03/11 03:27:46;;;;;;;5.15;4.67;;;;;;;-4.97;84.74;101465.44;457298;114;922916;-67
2022/03/11 03:28:49;;;;;;;4.93;4.50;;;;;;;-4.95;84.73;101464.37;460009;114;923204;-67
2022/03/11 03:29:57;;;;;;;5.96;4.96;;;;;;;-4.95;84.72;101472.35;457459;114;923528;-73
2022/03/11 03:31:01;;;;;;;5.14;4.26;;;;;;;-4.93;84.71;101474.92;457851;113;922534;-69
2022/03/11 03:32:05;;;;;;;5.47;4.94;;;;;;;-4.92;84.68;101468.66;457940;114;924923;-68
2022/03/11 03:33:08;;;;;;;5.64;4.61;;;;;;;-4.90;84.73;101469.41;461209;114;923629;-67
2022/03/11 03:34:12;;;;;;;5.41;4.69;;;;;;;-4.89;84.74;101471.98;461172;114;922836;-67
2022/03/11 03:35:15;;;;;;;5.22;4.44;;;;;;;-4.86;84.66;101476.27;460871;114;922545;-66
2022/03/11 03:36:19;;;;;;;4.78;4.13;;;;;;;-4.86;84.72;101479.78;457165;114;922632;-67
2022/03/11 03:37:22;;;;;;;5.61;5.07;;;;;;;-4.86;84.71;101468.28;458341;113;922958;-70
2022/03/11 03:38:25;;;;;;;5.01;4.56;;;;;;;-4.85;84.67;101478.81;459060;113;922512;-67
2022/03/11 03:39:29;;;;;;;5.59;4.93;;;;;;;-4.85;84.75;101478.81;458502;114;922869;-67
2022/03/11 03:40:32;;;;;;;5.14;4.59;;;;;;;-4.83;84.78;101479.58;458073;114;922554;-68
2022/03/11 03:41:35;;;;;;;6.11;4.18;;;;;;;-4.82;84.79;101481.30;456861;114;930562;-68
2022/03/11 03:42:39;;;;;;;5.40;4.90;;;;;;;-4.81;84.83;101483.02;457118;114;922697;-67
2022/03/11 03:43:42;;;;;;;5.47;4.91;;;;;;;-4.78;84.79;101488.13;458839;114;926501;-68
2022/03/11 03:44:45;;;;;;;4.97;4.50;;;;;;;-4.76;84.81;101485.38;458943;114;922560;-69
2022/03/11 03:45:49;;;;;;;5.72;4.79;;;;;;;-4.74;84.87;101492.30;457634;114;922644;-69
2022/03/11 03:46:52;;;;;;;6.19;5.30;;;;;;;-4.71;84.89;101489.47;459772;114;922571;-68
2022/03/11 03:47:56;;;;;;;5.44;4.59;;;;;;;-4.69;84.95;101490.24;457746;114;927931;-70
2022/03/11 03:49:00;;;;;;;5.16;4.66;;;;;;;-4.66;84.97;101491.84;456666;114;922634;-69
2022/03/11 03:50:03;;;;;;;4.80;4.34;;;;;;;-4.65;84.97;101499.73;458458;114;922687;-67
2022/03/11 03:51:07;;;;;;;5.64;4.79;;;;;;;-4.64;84.92;101497.93;458411;114;922671;-69
2022/03/11 03:52:12;;;;;;;5.03;4.55;;;;;;;-4.64;84.87;101500.59;457725;114;922673;-66
2022/03/11 03:53:15;;;;;;;5.98;5.49;;;;;;;-4.67;84.84;101498.96;458174;114;922987;-69
2022/03/11 03:54:19;;;;;;;6.41;5.23;;;;;;;-4.68;84.87;101504.37;457367;114;923133;-66
2022/03/11 03:55:22;;;;;;;5.01;4.47;;;;;;;-4.69;84.93;101508.86;456603;114;927218;-69
2022/03/11 03:56:25;;;;;;;5.46;4.96;;;;;;;-4.70;84.93;101507.15;456620;114;922758;-67
2022/03/11 03:57:29;;;;;;;5.70;4.68;;;;;;;-4.69;84.94;101505.34;457070;114;930664;-69
2022/03/11 03:58:32;;;;;;;5.78;5.09;;;;;;;-4.69;85.00;101513.33;456768;114;922585;-69
2022/03/11 03:59:35;;;;;;;5.59;5.04;;;;;;;-4.69;84.94;101508.86;457785;114;922562;-69
2022/03/11 04:00:39;;;;;;;5.15;4.65;;;;;;;-4.70;84.99;101512.47;459581;114;922860;-68
2022/03/11 04:01:44;;;;;;;5.81;5.31;;;;;;;-4.68;84.99;101512.35;452551;116;922672;-70
2022/03/11 04:02:50;;;;;;;6.24;4.54;;;;;;;-4.68;84.95;101522.99;452663;116;923071;-70
2022/03/11 04:03:54;;;;;;;5.10;4.61;;;;;;;-4.67;85.03;101520.25;457668;114;922554;-69
2022/03/11 04:04:58;;;;;;;6.27;4.93;;;;;;;-4.66;84.95;101516.64;457509;114;922473;-69
2022/03/11 04:06:02;;;;;;;5.58;5.08;;;;;;;-4.65;84.99;101526.34;458395;114;922769;-69
2022/03/11 04:07:05;;;;;;;7.26;5.31;;;;;;;-4.62;85.01;101526.14;458688;114;922677;-69
2022/03/11 04:08:09;;;;;;;6.09;4.76;;;;;;;-4.60;85.01;101526.05;459608;114;922951;-69
2022/03/11 04:09:12;;;;;;;4.87;4.33;;;;;;;-4.57;85.03;101522.33;456661;114;930594;-69
2022/03/11 04:10:18;;;;;;;5.36;4.83;;;;;;;-4.54;85.11;101530.14;458702;114;930545;-68
2022/03/11 04:11:21;;;;;;;5.98;5.39;;;;;;;-4.52;85.12;101531.73;460867;114;930494;-66
2022/03/11 04:12:24;;;;;;;5.78;5.03;;;;;;;-4.48;85.16;101535.09;460925;114;922922;-66
2022/03/11 04:13:28;;;;;;;5.58;4.62;;;;;;;-4.46;85.17;101531.36;456692;114;922526;-68
2022/03/11 04:14:32;;;;;;;5.58;5.05;;;;;;;-4.45;85.16;101537.54;456740;113;923524;-66
2022/03/11 04:15:35;;;;;;;5.09;4.68;;;;;;;-4.45;85.13;101529.55;452095;115;922587;-65
2022/03/11 04:16:39;;;;;;;5.67;5.14;;;;;;;-4.45;85.17;101541.06;456249;115;922549;-68
2022/03/11 04:17:42;;;;;;;7.08;5.63;;;;;;;-4.45;85.16;101533.08;455759;115;930536;-68
2022/03/11 04:18:47;;;;;;;5.34;4.74;;;;;;;-4.44;85.23;101531.27;458714;115;930480;-70
2022/03/11 04:19:51;;;;;;;6.10;5.39;;;;;;;-4.45;85.16;101529.55;460365;115;930624;-69
2022/03/11 04:20:54;;;;;;;6.55;5.51;;;;;;;-4.45;85.10;101537.54;450490;115;922726;-68
2022/03/11 04:21:59;;;;;;;6.05;5.23;;;;;;;-4.47;85.08;101537.66;453836;115;922607;-67
2022/03/11 04:23:02;;;;;;;5.23;4.73;;;;;;;-4.47;85.12;101542.98;458824;115;922675;-69
2022/03/11 04:24:12;;;;;;;5.50;5.00;;;;;;;-4.47;85.12;101542.13;450358;115;922519;-67
2022/03/11 04:25:12;;;;;;;6.30;5.07;;;;;;;-4.49;85.08;101541.34;455696;115;922512;-67
2022/03/11 04:26:17;;;;;;;7.41;4.77;;;;;;;-4.51;85.01;101553.88;458261;115;922517;-65
2022/03/11 04:27:21;;;;;;;5.64;4.78;;;;;;;-4.55;84.88;101547.91;452088;114;923315;-67
2022/03/11 04:28:25;;;;;;;7.42;4.92;;;;;;;-4.59;84.84;101548.20;450282;115;922586;-69
2022/03/11 04:29:28;;;;;;;5.28;4.84;;;;;;;-4.64;84.74;101554.66;454323;115;923056;-69
2022/03/11 04:30:32;;;;;;;7.42;4.79;;;;;;;-4.67;84.75;101553.98;458415;115;922666;-66
2022/03/11 04:31:35;;;;;;;5.25;4.71;;;;;;;-4.69;84.74;101551.44;450882;115;930605;-68
2022/03/11 04:32:38;;;;;;;5.26;4.76;;;;;;;-4.71;84.74;101555.98;450393;115;922951;-68
2022/03/11 04:33:42;;;;;;;5.05;4.56;;;;;;;-4.70;84.80;101559.50;450907;115;923208;-68
2022/03/11 04:34:45;;;;;;;6.20;5.11;;;;;;;-4.71;84.81;101561.30;450941;115;922863;-69
2022/03/11 04:35:49;;;;;;;5.47;4.97;;;;;;;-4.71;84.80;101555.98;454434;115;922573;-70
2022/03/11 04:36:52;;;;;;;6.67;4.99;;;;;;;-4.72;84.83;101570.23;458830;115;922352;-68
2022/03/11 04:37:55;;;;;;;7.06;5.36;;;;;;;-4.71;84.83;101565.77;451593;115;930504;-67
2022/03/11 04:39:00;;;;;;;5.92;5.22;;;;;;;-4.70;84.79;101571.00;452139;115;922626;-66
2022/03/11 04:40:05;;;;;;;5.81;5.23;;;;;;;-4.67;84.89;101580.58;451246;115;922647;-69
2022/03/11 04:41:08;;;;;;;5.94;5.22;;;;;;;-4.67;84.84;101581.44;453243;115;922595;-68
2022/03/11 04:42:13;;;;;;;6.19;5.49;;;;;;;-4.66;84.84;101584.96;455993;115;922597;-69
2022/03/11 04:43:16;;;;;;;7.22;5.21;;;;;;;-4.65;84.88;101582.22;450217;115;922529;-67
2022/03/11 04:44:20;;;;;;;6.12;4.99;;;;;;;-4.60;84.88;101586.39;456829;115;922686;-68
2022/03/11 04:45:23;;;;;;;6.02;5.45;;;;;;;-4.59;84.89;101585.45;460494;115;922713;-67
2022/03/11 04:46:27;;;;;;;4.99;4.53;;;;;;;-4.58;84.85;101584.51;456413;115;922738;-69
2022/03/11 04:47:30;;;;;;;6.21;5.49;;;;;;;-4.57;84.78;101583.53;453165;115;922482;-66
2022/03/11 04:48:36;;;;;;;5.54;5.00;;;;;;;-4.56;84.79;101593.23;458780;115;922503;-68
2022/03/11 04:49:39;;;;;;;5.47;4.96;;;;;;;-4.57;84.77;101594.17;456186;115;930575;-65
2022/03/11 04:50:43;;;;;;;5.95;5.23;;;;;;;-4.58;84.79;101581.84;450295;115;922806;-66
2022/03/11 04:51:46;;;;;;;7.16;4.91;;;;;;;-4.58;84.78;101585.36;451547;115;922724;-67
2022/03/11 04:52:49;;;;;;;5.78;5.09;;;;;;;-4.57;84.72;101587.05;460635;115;926414;-68
2022/03/11 04:53:55;;;;;;;6.98;5.26;;;;;;;-4.55;84.84;101584.30;460433;115;922511;-68